Time;durP1;ratioP1;P1;durP2;ratioP2;P2;SDS_P1;SDS_P2;PMS_P1;PMS_P2;Temp;Humidity;BMP_temperature;BMP_pressure;BME280_temperature;BME280_humidity;BME280_pressure;Samples;Min_cycle;Max_cycle;Signal;HPM_P1;HPM_P2
2021/03/21 00:00:35;;;;;;;20.83;9.57;;;3.90;76.70;;;;;;4997274;28;20216;-60
2021/03/21 00:03:03;;;;;;;16.13;9.40;;;3.90;76.70;;;;;;5007687;28;20214;-60
2021/03/21 00:05:30;;;;;;;15.70;9.30;;;3.90;76.60;;;;;;5002966;28;20723;-60
2021/03/21 00:08:04;;;;;;;15.37;9.67;;;3.90;76.60;;;;;;5010548;28;20212;-60
2021/03/21 00:10:32;;;;;;;12.97;8.87;;;3.80;76.50;;;;;;5010593;28;20294;-60
2021/03/21 00:12:59;;;;;;;14.10;8.07;;;3.80;76.60;;;;;;4986709;28;20291;-60
2021/03/21 00:15:27;;;;;;;23.40;9.20;;;3.80;76.60;;;;;;5010302;28;20282;-60
2021/03/21 00:17:55;;;;;;;13.10;8.13;;;3.70;76.40;;;;;;5010528;28;20826;-60
2021/03/21 00:20:27;;;;;;;15.83;8.70;;;3.70;76.30;;;;;;5010317;28;20203;-64
2021/03/21 00:22:56;;;;;;;12.73;8.07;;;3.70;75.90;;;;;;5007396;28;20244;-60
2021/03/21 00:25:25;;;;;;;11.50;6.83;;;3.80;75.70;;;;;;5008310;28;20216;-60
2021/03/21 00:27:52;;;;;;;17.73;7.77;;;3.70;75.40;;;;;;4993833;28;20554;-60
2021/03/21 00:30:23;;;;;;;14.10;6.57;;;3.80;74.90;;;;;;5007814;28;20213;-60
2021/03/21 00:32:51;;;;;;;14.47;7.63;;;3.80;74.30;;;;;;4999480;28;20204;-60
2021/03/21 00:35:18;;;;;;;11.10;6.63;;;3.80;74.00;;;;;;5011499;28;20240;-60
2021/03/21 00:37:46;;;;;;;10.73;6.50;;;3.80;73.60;;;;;;5008897;28;20235;-60
2021/03/21 00:40:19;;;;;;;11.07;6.20;;;3.80;73.20;;;;;;4987270;28;20238;-60
2021/03/21 00:42:46;;;;;;;10.33;5.50;;;3.80;72.70;;;;;;5011369;28;20200;-60
2021/03/21 00:45:16;;;;;;;9.93;5.70;;;3.80;72.40;;;;;;5007272;28;20208;-60
2021/03/21 00:47:43;;;;;;;12.27;6.03;;;3.80;72.20;;;;;;4994458;28;20498;-60
2021/03/21 00:50:18;;;;;;;7.13;5.53;;;3.80;72.20;;;;;;5010173;28;20238;-60
2021/03/21 00:52:45;;;;;;;11.37;5.77;;;3.70;72.00;;;;;;5009071;28;20285;-59
2021/03/21 00:55:13;;;;;;;10.20;5.63;;;3.70;71.80;;;;;;5011429;28;20682;-59
2021/03/21 00:57:41;;;;;;;9.23;5.37;;;3.70;71.80;;;;;;5014585;28;20612;-60
2021/03/21 01:00:16;;;;;;;12.37;5.00;;;3.70;71.50;;;;;;5009885;28;20299;-60
2021/03/21 01:02:44;;;;;;;9.43;4.40;;;3.80;71.40;;;;;;5005228;28;20597;-60
2021/03/21 01:05:21;;;;;;;12.53;4.90;;;3.80;70.90;;;;;;4994015;28;20299;-60
2021/03/21 01:07:51;;;;;;;8.17;4.47;;;3.90;70.30;;;;;;5012496;28;20668;-60
2021/03/21 01:10:30;;;;;;;9.63;4.60;;;3.90;69.90;;;;;;5011636;28;20703;-60
2021/03/21 01:12:58;;;;;;;8.13;5.00;;;4.00;69.30;;;;;;5011907;28;20515;-60
2021/03/21 01:15:27;;;;;;;6.83;4.03;;;4.10;68.90;;;;;;5013585;28;20414;-60
2021/03/21 01:17:54;;;;;;;15.37;4.83;;;4.10;68.60;;;;;;5013153;28;20647;-60
2021/03/21 01:20:24;;;;;;;11.50;5.20;;;4.20;68.20;;;;;;5009543;28;20691;-60
2021/03/21 01:22:52;;;;;;;7.03;4.87;;;4.20;68.00;;;;;;5006308;28;20235;-60
2021/03/21 01:25:24;;;;;;;8.67;4.33;;;4.20;67.50;;;;;;5013816;28;20212;-60
2021/03/21 01:27:53;;;;;;;7.87;4.53;;;4.30;67.20;;;;;;5007242;28;20211;-60
2021/03/21 01:30:23;;;;;;;9.90;4.63;;;4.30;66.90;;;;;;5009977;28;20212;-60
2021/03/21 01:32:51;;;;;;;8.00;4.60;;;4.20;66.50;;;;;;5012704;28;20634;-60
2021/03/21 01:35:19;;;;;;;7.80;4.60;;;4.10;66.60;;;;;;4996487;28;20223;-60
2021/03/21 01:37:47;;;;;;;8.97;4.03;;;4.00;66.60;;;;;;5013072;28;20672;-60
2021/03/21 01:40:16;;;;;;;8.50;5.03;;;3.90;66.50;;;;;;5006362;28;20213;-60
2021/03/21 01:42:46;;;;;;;13.03;5.03;;;3.90;66.70;;;;;;5002435;28;20693;-60
2021/03/21 01:45:43;;;;;;;11.43;5.00;;;3.80;66.60;;;;;;5010649;28;20645;-60
2021/03/21 01:48:36;;;;;;;13.63;5.20;;;3.80;66.60;;;;;;4999206;28;20205;-60
2021/03/21 01:51:13;;;;;;;9.93;4.57;;;3.70;66.60;;;;;;5004580;28;20211;-60
2021/03/21 01:53:43;;;;;;;10.90;5.10;;;3.60;66.60;;;;;;5014255;28;20203;-60
2021/03/21 01:56:12;;;;;;;14.17;4.73;;;3.60;66.70;;;;;;5013320;28;20366;-59
2021/03/21 01:58:42;;;;;;;12.03;4.23;;;3.50;66.80;;;;;;5012285;28;20281;-59
2021/03/21 02:01:24;;;;;;;14.20;4.90;;;3.50;67.10;;;;;;5010346;28;20208;-59
2021/03/21 02:03:51;;;;;;;7.03;4.40;;;3.40;67.50;;;;;;5010329;28;20207;-60
2021/03/21 02:06:40;;;;;;;11.87;4.80;;;3.30;67.80;;;;;;5011446;28;20243;-59
2021/03/21 02:09:32;;;;;;;11.60;5.73;;;3.20;68.00;;;;;;5010493;28;20638;-59
2021/03/21 02:12:27;;;;;;;16.93;5.93;;;3.10;68.30;;;;;;5003837;28;20212;-59
2021/03/21 02:15:10;;;;;;;12.97;5.60;;;3.10;68.70;;;;;;5010902;28;20231;-59
2021/03/21 02:18:03;;;;;;;9.57;5.47;;;2.90;69.10;;;;;;5003568;28;20233;-59
2021/03/21 02:20:45;;;;;;;10.10;5.47;;;2.80;69.60;;;;;;5003426;28;20212;-59
2021/03/21 02:23:53;;;;;;;13.17;5.20;;;2.70;70.10;;;;;;5008920;28;20302;-59
2021/03/21 02:26:44;;;;;;;10.23;4.93;;;2.60;70.60;;;;;;5011907;28;20239;-59
2021/03/21 02:29:27;;;;;;;10.10;4.87;;;2.50;70.90;;;;;;5013554;28;20234;-59
2021/03/21 02:32:05;;;;;;;5.83;4.67;;;2.40;71.30;;;;;;5013368;28;20207;-59
2021/03/21 02:34:59;;;;;;;10.73;5.10;;;2.30;71.50;;;;;;4996518;28;20211;-59
2021/03/21 02:37:29;;;;;;;12.63;5.37;;;2.30;72.00;;;;;;5011846;28;20281;-59
2021/03/21 02:40:07;;;;;;;10.30;6.03;;;2.20;72.10;;;;;;5012539;28;20211;-59
2021/03/21 02:42:40;;;;;;;8.83;6.23;;;2.20;72.50;;;;;;5012133;28;20565;-60
2021/03/21 02:45:20;;;;;;;9.57;6.80;;;2.10;72.80;;;;;;5011750;28;20606;-59
2021/03/21 02:47:50;;;;;;;9.20;6.17;;;2.10;73.00;;;;;;5007406;28;20574;-60
2021/03/21 02:50:29;;;;;;;8.73;5.43;;;2.10;73.10;;;;;;5011280;28;20207;-60
2021/03/21 02:53:35;;;;;;;8.20;5.47;;;2.10;73.20;;;;;;5012025;28;20241;-60
2021/03/21 02:56:04;;;;;;;12.80;5.90;;;2.00;73.60;;;;;;4965716;28;20325;-60
2021/03/21 02:58:39;;;;;;;10.07;5.83;;;2.00;73.50;;;;;;4957813;28;20522;-60
2021/03/21 03:01:17;;;;;;;10.07;6.27;;;2.00;73.70;;;;;;4962010;28;20596;-59
2021/03/21 03:03:47;;;;;;;14.27;6.53;;;1.90;73.80;;;;;;4960493;28;20245;-59
2021/03/21 03:06:24;;;;;;;10.37;6.77;;;1.90;74.00;;;;;;4975139;28;20533;-59
2021/03/21 03:08:55;;;;;;;12.90;6.57;;;1.80;74.30;;;;;;5009059;28;20219;-59
2021/03/21 03:11:41;;;;;;;10.63;6.80;;;1.80;74.40;;;;;;4999005;28;20200;-59
2021/03/21 03:14:13;;;;;;;12.97;6.67;;;1.70;74.50;;;;;;5010010;28;20218;-59
2021/03/21 03:16:49;;;;;;;12.30;7.57;;;1.60;75.20;;;;;;5008048;28;20223;-59
2021/03/21 03:19:32;;;;;;;10.87;7.63;;;1.50;74.90;;;;;;5007960;28;20217;-59
2021/03/21 03:21:59;;;;;;;10.47;6.53;;;1.40;75.30;;;;;;4996206;28;20212;-59
2021/03/21 03:24:35;;;;;;;9.77;6.47;;;1.40;75.60;;;;;;5011909;28;20311;-59
2021/03/21 03:27:12;;;;;;;10.80;7.00;;;1.30;75.60;;;;;;5011085;28;20215;-59
2021/03/21 03:29:57;;;;;;;12.33;7.30;;;1.30;75.60;;;;;;4999445;28;20216;-59
2021/03/21 03:32:27;;;;;;;11.80;7.60;;;1.30;75.70;;;;;;5010309;28;20314;-59
2021/03/21 03:34:57;;;;;;;10.27;7.50;;;1.20;75.80;;;;;;5009955;28;20554;-59
2021/03/21 03:37:28;;;;;;;9.97;7.17;;;1.20;75.70;;;;;;5013583;28;20302;-60
2021/03/21 03:39:55;;;;;;;18.13;7.60;;;1.10;75.80;;;;;;5008589;28;20203;-59
2021/03/21 03:42:33;;;;;;;14.03;8.50;;;1.10;76.00;;;;;;5012152;28;20212;-59
2021/03/21 03:45:18;;;;;;;12.30;7.40;;;1.10;76.40;;;;;;5011745;28;20203;-60
2021/03/21 03:47:57;;;;;;;11.93;7.97;;;1.00;76.50;;;;;;5003971;28;20211;-60
2021/03/21 03:50:49;;;;;;;12.50;7.33;;;1.00;76.50;;;;;;4994765;28;20212;-60
2021/03/21 03:53:53;;;;;;;13.03;7.17;;;1.00;76.60;;;;;;5007645;28;20589;-59
2021/03/21 03:56:33;;;;;;;13.23;7.03;;;1.00;76.60;;;;;;5008564;28;20235;-59
2021/03/21 03:59:25;;;;;;;11.87;6.77;;;1.00;76.60;;;;;;5007060;28;20627;-60
2021/03/21 04:02:22;;;;;;;12.40;7.93;;;1.00;76.50;;;;;;5003818;28;20208;-60
2021/03/21 04:05:03;;;;;;;9.00;6.33;;;0.90;76.60;;;;;;4996041;28;20204;-59
2021/03/21 04:07:46;;;;;;;9.00;6.57;;;0.90;76.60;;;;;;5006777;28;20215;-59
2021/03/21 04:10:18;;;;;;;12.70;6.17;;;0.90;76.80;;;;;;5002535;28;20216;-60
2021/03/21 04:13:06;;;;;;;9.07;6.73;;;0.80;76.80;;;;;;5008647;28;20555;-59
2021/03/21 04:15:41;;;;;;;11.83;6.43;;;0.90;76.80;;;;;;5009775;28;20534;-59
2021/03/21 04:18:34;;;;;;;11.37;6.27;;;0.80;76.80;;;;;;5005925;28;20282;-60
2021/03/21 04:21:24;;;;;;;9.07;6.60;;;0.80;76.80;;;;;;5007732;28;20209;-59
2021/03/21 04:24:09;;;;;;;7.77;6.23;;;0.80;76.60;;;;;;5008608;28;20232;-59
2021/03/21 04:26:43;;;;;;;8.37;5.63;;;0.90;76.60;;;;;;4987463;28;20204;-59
2021/03/21 04:29:18;;;;;;;8.53;5.30;;;0.80;76.50;;;;;;4987617;28;20298;-60
2021/03/21 04:31:47;;;;;;;9.70;6.07;;;0.80;76.60;;;;;;5005206;28;20509;-59
2021/03/21 04:34:16;;;;;;;11.30;6.90;;;0.70;76.50;;;;;;4988045;28;20220;-59
2021/03/21 04:36:46;;;;;;;7.43;5.73;;;0.70;76.50;;;;;;4993424;28;20744;-60
2021/03/21 04:39:20;;;;;;;11.30;6.13;;;0.60;76.40;;;;;;4994350;28;20551;-59
2021/03/21 04:42:10;;;;;;;8.17;6.07;;;0.60;76.40;;;;;;4994448;28;20205;-59
2021/03/21 04:44:48;;;;;;;9.20;6.17;;;0.60;76.40;;;;;;4992829;28;20209;-59
2021/03/21 04:47:23;;;;;;;10.97;6.27;;;0.60;76.30;;;;;;4987008;28;20216;-59
2021/03/21 04:49:53;;;;;;;8.43;5.60;;;0.70;76.00;;;;;;4991445;28;20211;-59
2021/03/21 04:52:26;;;;;;;9.77;5.47;;;0.70;75.70;;;;;;4993665;28;20222;-59
2021/03/21 04:54:55;;;;;;;7.40;5.40;;;0.70;75.70;;;;;;4989089;28;20224;-59
2021/03/21 04:57:40;;;;;;;8.73;6.07;;;0.70;75.70;;;;;;4994901;28;20239;-59
2021/03/21 05:00:27;;;;;;;8.27;6.00;;;0.70;75.60;;;;;;4996175;28;20588;-60
2021/03/21 05:03:04;;;;;;;8.33;4.97;;;0.70;75.60;;;;;;4992561;28;20425;-60
2021/03/21 05:05:42;;;;;;;9.57;6.30;;;0.70;75.50;;;;;;4988898;28;20212;-59
2021/03/21 05:08:17;;;;;;;9.43;6.23;;;0.70;75.30;;;;;;4994758;28;20212;-60
2021/03/21 05:10:48;;;;;;;7.13;5.57;;;0.60;75.10;;;;;;4993474;28;20270;-60
2021/03/21 05:13:37;;;;;;;8.57;5.47;;;0.50;75.20;;;;;;4989553;28;20220;-60
2021/03/21 05:16:07;;;;;;;9.83;6.10;;;0.50;75.60;;;;;;4987268;28;20226;-60
2021/03/21 05:18:56;;;;;;;8.10;5.53;;;0.40;75.70;;;;;;4988940;28;20224;-60
2021/03/21 05:21:51;;;;;;;7.57;5.70;;;0.40;75.80;;;;;;5006949;28;20244;-60
2021/03/21 05:24:40;;;;;;;11.17;5.73;;;0.40;76.00;;;;;;5003105;28;20248;-60
2021/03/21 05:27:20;;;;;;;8.77;5.77;;;0.50;76.20;;;;;;5013044;28;20349;-60
2021/03/21 05:29:47;;;;;;;10.77;6.00;;;0.50;76.10;;;;;;5010208;28;20657;-60
2021/03/21 05:32:17;;;;;;;8.17;5.93;;;0.50;76.20;;;;;;5012788;28;20211;-60
2021/03/21 05:34:46;;;;;;;7.93;5.60;;;0.60;76.40;;;;;;5009778;28;20231;-60
2021/03/21 05:37:35;;;;;;;9.53;6.23;;;0.70;76.40;;;;;;5013406;28;20231;-60
2021/03/21 05:40:25;;;;;;;8.20;5.83;;;0.80;76.40;;;;;;5013845;28;20219;-60
2021/03/21 05:43:31;;;;;;;7.77;6.03;;;0.90;76.30;;;;;;4998898;28;20213;-60
2021/03/21 05:46:14;;;;;;;9.80;5.17;;;1.10;76.00;;;;;;5012776;28;20203;-60
2021/03/21 05:49:18;;;;;;;9.13;5.83;;;1.30;75.70;;;;;;5009490;28;20216;-60
2021/03/21 05:52:00;;;;;;;6.50;5.47;;;1.50;75.30;;;;;;5005349;28;20315;-60
2021/03/21 05:54:33;;;;;;;6.93;5.40;;;1.70;75.00;;;;;;5007391;28;20212;-60
2021/03/21 05:57:33;;;;;;;7.93;5.40;;;1.80;74.80;;;;;;5012593;28;20579;-60
2021/03/21 06:00:38;;;;;;;9.43;5.33;;;2.00;74.20;;;;;;5009893;28;20306;-60
2021/03/21 06:03:55;;;;;;;9.63;5.53;;;2.20;73.60;;;;;;5011141;28;20208;-60
2021/03/21 06:06:50;;;;;;;8.97;5.77;;;2.60;72.70;;;;;;5004302;28;20239;-60
2021/03/21 06:09:23;;;;;;;7.10;5.50;;;2.90;71.50;;;;;;5012816;28;20219;-60
2021/03/21 06:12:05;;;;;;;8.00;4.93;;;3.20;71.10;;;;;;5009663;28;20219;-60
2021/03/21 06:15:12;;;;;;;7.83;5.87;;;3.60;71.00;;;;;;5011782;28;20223;-60
2021/03/21 06:18:00;;;;;;;7.37;5.47;;;3.90;69.60;;;;;;5003662;28;20270;-60
2021/03/21 06:20:29;;;;;;;7.70;5.20;;;4.10;68.80;;;;;;5006852;28;20270;-60
2021/03/21 06:23:23;;;;;;;8.03;5.77;;;4.20;68.60;;;;;;5011608;28;20227;-60
2021/03/21 06:26:02;;;;;;;7.57;5.50;;;4.40;67.80;;;;;;5014296;28;20266;-60
2021/03/21 06:29:17;;;;;;;6.13;5.53;;;4.50;67.60;;;;;;5009263;28;20644;-60
2021/03/21 06:31:48;;;;;;;8.17;5.00;;;4.60;67.10;;;;;;4966206;28;20256;-60
2021/03/21 06:34:27;;;;;;;9.07;5.30;;;4.70;66.30;;;;;;5005413;28;20250;-60
2021/03/21 06:37:18;;;;;;;7.10;5.03;;;4.70;66.20;;;;;;5010664;28;20228;-60
2021/03/21 06:40:13;;;;;;;5.23;4.50;;;4.80;65.10;;;;;;5008594;28;20208;-60
2021/03/21 06:43:11;;;;;;;5.73;4.60;;;4.80;63.00;;;;;;5012417;28;20204;-60
2021/03/21 06:45:58;;;;;;;6.83;4.80;;;4.70;62.60;;;;;;5000814;28;20270;-60
2021/03/21 06:48:53;;;;;;;5.83;4.70;;;4.60;62.20;;;;;;4996605;28;20216;-60
2021/03/21 06:51:45;;;;;;;6.63;4.73;;;4.60;62.30;;;;;;4996897;28;20223;-60
2021/03/21 06:54:42;;;;;;;6.33;4.40;;;4.70;61.90;;;;;;5006426;28;20220;-60
2021/03/21 06:57:18;;;;;;;4.40;3.90;;;4.70;60.70;;;;;;5011122;28;20735;-60
2021/03/21 07:00:09;;;;;;;5.17;4.60;;;4.70;60.40;;;;;;5008899;28;20275;-60
2021/03/21 07:03:04;;;;;;;6.60;4.43;;;4.80;61.40;;;;;;5006678;28;20551;-60
2021/03/21 07:06:08;;;;;;;5.17;4.27;;;4.80;61.00;;;;;;5006027;28;20685;-60
2021/03/21 07:09:00;;;;;;;4.47;4.03;;;4.80;62.00;;;;;;5006917;28;20601;-60
2021/03/21 07:11:55;;;;;;;8.37;4.43;;;4.90;60.90;;;;;;5007502;28;20845;-60
2021/03/21 07:14:47;;;;;;;6.37;3.87;;;4.90;60.90;;;;;;5011526;28;20870;-60
2021/03/21 07:17:35;;;;;;;4.70;3.83;;;4.90;60.50;;;;;;5006274;28;20683;-60
2021/03/21 07:20:27;;;;;;;5.53;3.83;;;5.00;61.20;;;;;;5012069;28;20207;-60
2021/03/21 07:23:10;;;;;;;5.43;3.90;;;5.00;59.90;;;;;;5009594;28;20236;-60
2021/03/21 07:25:56;;;;;;;6.17;4.73;;;5.10;59.90;;;;;;5014196;28;20291;-60
2021/03/21 07:28:32;;;;;;;4.50;3.77;;;5.30;60.40;;;;;;5010054;28;20258;-60
2021/03/21 07:31:20;;;;;;;5.97;4.00;;;5.40;60.70;;;;;;5010849;28;20602;-60
2021/03/21 07:34:18;;;;;;;5.33;4.73;;;5.60;59.60;;;;;;5012076;28;20238;-60
2021/03/21 07:37:03;;;;;;;9.33;4.30;;;5.70;59.60;;;;;;5008606;28;20235;-60
2021/03/21 07:39:49;;;;;;;6.80;4.10;;;5.90;59.20;;;;;;5008345;28;20218;-60
2021/03/21 07:42:30;;;;;;;5.83;4.07;;;6.00;57.10;;;;;;5010691;28;20298;-60
2021/03/21 07:45:16;;;;;;;4.70;4.10;;;6.10;57.50;;;;;;4997609;28;20211;-60
2021/03/21 07:48:11;;;;;;;3.87;3.30;;;6.30;57.10;;;;;;5011070;28;20227;-60
2021/03/21 07:51:08;;;;;;;5.07;3.30;;;6.60;56.60;;;;;;5009500;28;20490;-60
2021/03/21 07:53:57;;;;;;;3.97;2.77;;;6.80;56.40;;;;;;5009162;28;20235;-60
2021/03/21 07:56:45;;;;;;;4.23;3.30;;;7.10;55.20;;;;;;5000577;28;20208;-60
2021/03/21 07:59:16;;;;;;;3.50;3.10;;;7.40;53.70;;;;;;5007918;28;20216;-60
2021/03/21 08:01:43;;;;;;;4.40;3.00;;;7.60;53.50;;;;;;5006309;28;20306;-60
2021/03/21 08:04:42;;;;;;;3.00;2.80;;;7.80;53.00;;;;;;5010497;28;20207;-60
2021/03/21 08:07:25;;;;;;;6.30;3.07;;;8.00;51.40;;;;;;5003621;28;20212;-60
2021/03/21 08:09:52;;;;;;;3.03;2.73;;;8.20;51.70;;;;;;5008432;28;20254;-60
2021/03/21 08:12:19;;;;;;;4.53;2.90;;;8.50;51.30;;;;;;5006463;28;20223;-61
2021/03/21 08:15:10;;;;;;;4.17;2.70;;;8.70;48.60;;;;;;5008299;28;20601;-61
2021/03/21 08:17:40;;;;;;;4.50;3.27;;;8.80;48.60;;;;;;4998396;28;20227;-61
2021/03/21 08:20:22;;;;;;;2.70;2.50;;;8.90;48.10;;;;;;5008503;28;20211;-61
2021/03/21 08:22:54;;;;;;;2.53;2.33;;;9.00;48.20;;;;;;5000921;28;20227;-60
2021/03/21 08:25:30;;;;;;;3.60;2.40;;;9.00;46.50;;;;;;5011802;28;20230;-60
2021/03/21 08:27:58;;;;;;;6.03;3.83;;;9.10;46.10;;;;;;5006475;28;20215;-60
2021/03/21 08:30:43;;;;;;;2.90;2.30;;;9.20;46.60;;;;;;5005346;28;20215;-60
2021/03/21 08:33:39;;;;;;;3.40;2.50;;;9.30;46.90;;;;;;5009912;28;20277;-60
2021/03/21 08:36:24;;;;;;;5.70;3.17;;;9.50;45.60;;;;;;5009771;28;20667;-60
2021/03/21 08:39:14;;;;;;;3.37;2.53;;;9.60;45.40;;;;;;5001739;28;20274;-60
2021/03/21 08:41:52;;;;;;;7.00;3.23;;;9.70;45.30;;;;;;5010617;28;20232;-60
2021/03/21 08:44:29;;;;;;;4.30;3.50;;;9.80;45.50;;;;;;5001050;28;20649;-61
2021/03/21 08:46:56;;;;;;;3.10;2.40;;;9.90;45.00;;;;;;5010151;28;20298;-61
2021/03/21 08:49:35;;;;;;;4.50;2.77;;;10.00;44.60;;;;;;5009975;28;20324;-60
2021/03/21 08:52:03;;;;;;;5.13;2.87;;;10.00;44.40;;;;;;5012126;28;20216;-61
2021/03/21 08:54:36;;;;;;;4.33;2.87;;;10.00;44.30;;;;;;5001314;28;20211;-60
2021/03/21 08:57:31;;;;;;;5.43;2.97;;;10.00;44.50;;;;;;5002377;28;20227;-60
2021/03/21 09:00:26;;;;;;;4.53;2.97;;;10.10;43.50;;;;;;5009304;28;20222;-60
2021/03/21 09:02:53;;;;;;;3.33;2.97;;;10.20;43.00;;;;;;5014252;28;20295;-60
2021/03/21 09:05:23;;;;;;;3.80;2.67;;;10.30;43.90;;;;;;4993479;28;20209;-60
2021/03/21 09:07:50;;;;;;;4.07;3.17;;;10.40;44.00;;;;;;5009163;28;20250;-60
2021/03/21 09:10:29;;;;;;;7.43;3.30;;;10.60;42.70;;;;;;5012525;28;20291;-60
2021/03/21 09:13:19;;;;;;;4.43;3.40;;;10.60;41.80;;;;;;5014836;28;20299;-60
2021/03/21 09:15:59;;;;;;;5.40;3.30;;;10.70;43.50;;;;;;5012409;28;20227;-60
2021/03/21 09:18:33;;;;;;;4.70;3.57;;;10.70;41.40;;;;;;5009621;28;20327;-60
2021/03/21 09:21:14;;;;;;;5.30;3.60;;;10.50;41.50;;;;;;5015946;28;20203;-60
2021/03/21 09:23:56;;;;;;;3.60;3.30;;;10.50;43.40;;;;;;5010668;28;20242;-60
2021/03/21 09:26:23;;;;;;;3.70;3.20;;;10.70;43.70;;;;;;5009818;28;20242;-61
2021/03/21 09:28:59;;;;;;;4.07;3.20;;;11.00;41.90;;;;;;5012197;28;20208;-61
2021/03/21 09:31:27;;;;;;;4.50;2.93;;;11.10;42.20;;;;;;5004426;28;20203;-60
2021/03/21 09:34:22;;;;;;;5.07;3.80;;;11.20;41.90;;;;;;5014931;28;20557;-60
2021/03/21 09:36:55;;;;;;;5.20;3.57;;;11.40;41.90;;;;;;5014312;28;20744;-60
2021/03/21 09:39:31;;;;;;;5.10;3.33;;;11.50;41.80;;;;;;5011637;28;20213;-60
2021/03/21 09:42:00;;;;;;;4.07;3.20;;;11.40;40.90;;;;;;5014359;28;20290;-60
2021/03/21 09:44:33;;;;;;;4.87;3.67;;;11.20;41.00;;;;;;4997092;28;20632;-60
2021/03/21 09:47:21;;;;;;;4.20;3.80;;;11.10;41.30;;;;;;5010159;28;20216;-60
2021/03/21 09:50:03;;;;;;;4.63;3.83;;;11.20;41.90;;;;;;5008741;28;20285;-60
2021/03/21 09:52:52;;;;;;;4.27;3.57;;;11.10;42.00;;;;;;5011200;28;20215;-60
2021/03/21 09:55:41;;;;;;;7.03;4.00;;;11.10;41.90;;;;;;5012446;28;20220;-60
2021/03/21 09:58:35;;;;;;;4.40;4.00;;;11.10;42.10;;;;;;5012628;28;20231;-60
2021/03/21 10:01:33;;;;;;;4.57;3.50;;;11.10;41.70;;;;;;5012183;28;20295;-60
2021/03/21 10:04:23;;;;;;;5.57;3.67;;;11.30;41.20;;;;;;5008674;28;20207;-60
2021/03/21 10:06:55;;;;;;;5.97;4.07;;;11.30;42.30;;;;;;5010089;28;20250;-60
2021/03/21 10:09:26;;;;;;;6.53;4.17;;;11.40;41.20;;;;;;5002147;28;20208;-60
2021/03/21 10:12:05;;;;;;;4.67;3.70;;;11.40;42.20;;;;;;5006413;28;20239;-60
2021/03/21 10:14:31;;;;;;;5.77;4.07;;;11.50;41.80;;;;;;5001296;28;20657;-60
2021/03/21 10:17:16;;;;;;;6.23;3.73;;;11.60;41.10;;;;;;4998853;28;20260;-60
2021/03/21 10:19:51;;;;;;;3.43;3.13;;;11.60;40.10;;;;;;5012505;28;20219;-60
2021/03/21 10:22:21;;;;;;;5.67;4.53;;;11.60;39.70;;;;;;5004654;28;20262;-60
2021/03/21 10:24:53;;;;;;;4.13;3.67;;;11.50;39.90;;;;;;5003888;28;20269;-60
2021/03/21 10:27:21;;;;;;;4.77;3.77;;;11.50;39.90;;;;;;4989765;28;20207;-60
2021/03/21 10:30:13;;;;;;;6.63;3.37;;;11.40;39.70;;;;;;5012604;28;20234;-60
2021/03/21 10:32:58;;;;;;;5.13;4.20;;;11.30;39.80;;;;;;5010492;28;20211;-60
2021/03/21 10:35:25;;;;;;;6.13;3.80;;;11.20;38.50;;;;;;5009628;28;20208;-60
2021/03/21 10:38:29;;;;;;;3.97;3.50;;;11.10;39.40;;;;;;5010096;28;20742;-60
2021/03/21 10:40:56;;;;;;;3.80;3.27;;;11.20;39.50;;;;;;4997909;28;20587;-58
2021/03/21 10:43:23;;;;;;;4.93;3.07;;;11.20;39.50;;;;;;5012534;28;20208;-59
2021/03/21 10:45:53;;;;;;;4.30;3.37;;;11.30;37.70;;;;;;5011145;28;20215;-58
2021/03/21 10:48:26;;;;;;;4.43;3.53;;;11.40;38.40;;;;;;5008372;28;20212;-58
2021/03/21 10:51:06;;;;;;;3.60;3.30;;;11.60;38.10;;;;;;5010601;28;20590;-59
2021/03/21 10:53:57;;;;;;;3.70;3.20;;;11.70;38.90;;;;;;5012566;28;20541;-59
2021/03/21 10:56:27;;;;;;;4.30;3.50;;;11.90;37.90;;;;;;5006075;28;20263;-59
2021/03/21 10:59:09;;;;;;;6.13;3.53;;;11.90;37.90;;;;;;5007326;28;20286;-59
2021/03/21 11:02:20;;;;;;;3.87;3.37;;;11.90;39.40;;;;;;5011005;28;20294;-58
2021/03/21 11:05:06;;;;;;;4.57;3.80;;;11.70;36.80;;;;;;5012769;28;20203;-59
2021/03/21 11:07:33;;;;;;;5.03;3.40;;;11.60;37.80;;;;;;5007461;28;20278;-58
2021/03/21 11:10:07;;;;;;;3.93;3.27;;;11.50;38.30;;;;;;4993979;28;20303;-59
2021/03/21 11:12:39;;;;;;;3.20;2.90;;;11.50;37.40;;;;;;4993552;28;20218;-59
2021/03/21 11:15:19;;;;;;;4.43;3.40;;;11.40;37.30;;;;;;5009286;28;20224;-59
2021/03/21 11:17:46;;;;;;;4.50;3.20;;;11.40;37.40;;;;;;5003164;28;20235;-59
2021/03/21 11:20:26;;;;;;;6.27;3.63;;;11.50;37.90;;;;;;5006094;28;20211;-59
2021/03/21 11:23:17;;;;;;;5.23;3.20;;;11.70;37.60;;;;;;5008826;28;20591;-59
2021/03/21 11:25:44;;;;;;;4.63;3.37;;;12.00;38.90;;;;;;5009867;28;20246;-59
2021/03/21 11:28:37;;;;;;;7.60;3.47;;;12.20;37.90;;;;;;5011770;28;20223;-59
2021/03/21 11:31:09;;;;;;;3.80;3.40;;;12.30;36.60;;;;;;5004042;28;20916;-59
2021/03/21 11:33:43;;;;;;;4.00;3.37;;;12.20;34.70;;;;;;5012583;28;20242;-59
2021/03/21 11:36:22;;;;;;;4.47;3.47;;;12.10;35.90;;;;;;5011534;28;20207;-58
2021/03/21 11:38:50;;;;;;;5.03;3.40;;;12.00;35.30;;;;;;5011627;28;20740;-58
2021/03/21 11:41:39;;;;;;;6.97;3.40;;;12.10;36.50;;;;;;5009420;28;20207;-58
2021/03/21 11:44:09;;;;;;;4.63;3.37;;;12.00;35.00;;;;;;5011892;28;20218;-59
2021/03/21 11:46:37;;;;;;;3.83;2.93;;;11.90;35.90;;;;;;5009631;28;20266;-59
2021/03/21 11:49:04;;;;;;;5.03;3.40;;;11.80;36.40;;;;;;5008206;28;20534;-59
2021/03/21 11:51:35;;;;;;;6.37;3.73;;;11.80;37.80;;;;;;4994685;28;20212;-59
2021/03/21 11:54:03;;;;;;;3.70;3.20;;;11.80;37.00;;;;;;5006941;28;20219;-58
2021/03/21 11:56:40;;;;;;;4.53;3.50;;;11.80;37.40;;;;;;5004706;28;20505;-59
2021/03/21 11:59:13;;;;;;;4.80;3.43;;;11.90;37.20;;;;;;5010656;28;20617;-58
2021/03/21 12:01:48;;;;;;;4.53;3.40;;;12.00;36.80;;;;;;4994497;28;20649;-58
2021/03/21 12:04:25;;;;;;;3.70;2.90;;;12.00;37.60;;;;;;5007727;28;20207;-58
2021/03/21 12:06:57;;;;;;;3.77;2.63;;;12.10;37.70;;;;;;5012023;28;20603;-58
2021/03/21 12:09:36;;;;;;;3.80;3.40;;;12.10;36.40;;;;;;5011128;28;20206;-58
2021/03/21 12:12:49;;;;;;;5.63;3.33;;;11.90;38.00;;;;;;5009797;28;20242;-58
2021/03/21 12:15:24;;;;;;;3.93;3.13;;;11.80;37.70;;;;;;4996792;28;20215;-58
2021/03/21 12:18:15;;;;;;;6.13;3.93;;;11.90;36.80;;;;;;5011006;28;20227;-58
2021/03/21 12:20:51;;;;;;;6.43;3.30;;;11.80;37.00;;;;;;4996794;28;20492;-58
2021/03/21 12:23:47;;;;;;;5.27;3.40;;;11.80;39.30;;;;;;4995001;28;20240;-58
2021/03/21 12:26:31;;;;;;;3.73;3.43;;;11.90;37.40;;;;;;4982139;28;20213;-58
2021/03/21 12:29:02;;;;;;;4.47;3.80;;;12.00;37.20;;;;;;5010372;28;20245;-58
2021/03/21 12:31:36;;;;;;;3.90;3.43;;;12.00;37.90;;;;;;5003212;28;20235;-58
2021/03/21 12:34:42;;;;;;;3.80;3.37;;;12.10;38.20;;;;;;5014017;28;20211;-58
2021/03/21 12:37:26;;;;;;;3.40;3.10;;;12.20;37.70;;;;;;5013722;28;20239;-58
2021/03/21 12:40:13;;;;;;;4.50;3.43;;;12.20;35.90;;;;;;5015097;28;20212;-58
2021/03/21 12:42:44;;;;;;;4.53;3.30;;;12.10;36.30;;;;;;5002852;28;20600;-58
2021/03/21 12:45:32;;;;;;;5.17;3.80;;;12.10;36.60;;;;;;4989049;28;20248;-58
2021/03/21 12:48:04;;;;;;;5.80;3.70;;;12.20;37.60;;;;;;5006995;28;20205;-58
2021/03/21 12:50:31;;;;;;;5.83;4.20;;;12.30;35.40;;;;;;5010293;28;20216;-59
2021/03/21 12:53:00;;;;;;;5.03;3.57;;;12.30;35.40;;;;;;5014407;28;20216;-59
2021/03/21 12:55:27;;;;;;;4.27;3.50;;;12.30;35.20;;;;;;4997298;28;20204;-59
2021/03/21 12:57:55;;;;;;;7.70;4.30;;;12.20;33.90;;;;;;4998290;28;20219;-59
2021/03/21 13:00:24;;;;;;;4.00;3.50;;;12.20;34.60;;;;;;5010950;28;20549;-59
2021/03/21 13:02:54;;;;;;;3.33;3.03;;;12.20;34.00;;;;;;5010945;28;20552;-59
2021/03/21 13:05:44;;;;;;;4.47;3.70;;;12.30;33.60;;;;;;5006594;28;20693;-59
2021/03/21 13:08:14;;;;;;;4.70;4.00;;;12.30;34.30;;;;;;5010591;28;20283;-59
2021/03/21 13:10:41;;;;;;;4.63;3.40;;;12.30;33.90;;;;;;5013064;28;20207;-59
2021/03/21 13:13:16;;;;;;;4.63;3.30;;;12.30;33.70;;;;;;4996675;28;20288;-59
2021/03/21 13:15:44;;;;;;;4.60;3.70;;;12.30;33.70;;;;;;5013377;28;20562;-59
2021/03/21 13:18:17;;;;;;;4.83;3.40;;;12.20;33.30;;;;;;5012914;28;20318;-59
2021/03/21 13:20:51;;;;;;;5.07;3.73;;;12.20;35.00;;;;;;5009463;28;20207;-59
2021/03/21 13:23:20;;;;;;;4.93;3.73;;;12.30;35.00;;;;;;5007476;28;20233;-59
2021/03/21 13:25:47;;;;;;;4.00;3.50;;;12.50;34.70;;;;;;5011496;28;20275;-59
2021/03/21 13:28:14;;;;;;;4.33;3.60;;;12.60;32.60;;;;;;5010724;28;20666;-59
2021/03/21 13:30:44;;;;;;;4.33;3.37;;;12.50;31.50;;;;;;5009897;28;20213;-59
2021/03/21 13:33:21;;;;;;;5.77;3.60;;;12.30;32.00;;;;;;4997740;28;20215;-59
2021/03/21 13:35:52;;;;;;;3.70;3.33;;;12.30;32.30;;;;;;5013864;28;20630;-59
2021/03/21 13:38:20;;;;;;;3.43;3.03;;;12.30;31.90;;;;;;5013506;28;20641;-59
2021/03/21 13:40:46;;;;;;;4.20;3.33;;;12.20;31.80;;;;;;5011235;28;20207;-59
2021/03/21 13:43:19;;;;;;;4.33;3.00;;;12.10;31.40;;;;;;5011997;28;20231;-62
2021/03/21 13:45:48;;;;;;;4.00;3.60;;;12.00;31.60;;;;;;5013621;28;20212;-59
2021/03/21 13:48:15;;;;;;;3.70;3.40;;;11.90;31.10;;;;;;5011072;28;20216;-59
2021/03/21 13:50:44;;;;;;;4.20;3.07;;;11.80;31.80;;;;;;5013463;28;20275;-59